sensor_id;sensor_type;location;lat;lon;timestamp;P1;durP1;ratioP1;P2;durP2;ratioP2
50781;SDS011;36749;37.428;-121.972;2023-10-08T00:01:08;8.25;;;2.88;;
50781;SDS011;36749;37.428;-121.972;2023-10-08T00:03:39;5.88;;;2.25;;
50781;SDS011;36749;37.428;-121.972;2023-10-08T00:06:06;4.65;;;2.35;;
50781;SDS011;36749;37.428;-121.972;2023-10-08T00:08:37;4.97;;;2.55;;
50781;SDS011;36749;37.428;-121.972;2023-10-08T00:11:04;6.53;;;2.40;;
50781;SDS011;36749;37.428;-121.972;2023-10-08T00:13:35;5.40;;;2.20;;
50781;SDS011;36749;37.428;-121.972;2023-10-08T00:16:09;8.43;;;2.83;;
50781;SDS011;36749;37.428;-121.972;2023-10-08T00:18:37;6.57;;;2.10;;
50781;SDS011;36749;37.428;-121.972;2023-10-08T00:21:06;3.33;;;1.83;;
50781;SDS011;36749;37.428;-121.972;2023-10-08T00:23:32;7.18;;;1.95;;
50781;SDS011;36749;37.428;-121.972;2023-10-08T00:26:00;5.88;;;2.00;;
50781;SDS011;36749;37.428;-121.972;2023-10-08T00:28:30;6.20;;;2.45;;
50781;SDS011;36749;37.428;-121.972;2023-10-08T00:30:57;9.38;;;2.58;;
50781;SDS011;36749;37.428;-121.972;2023-10-08T00:33:31;18.30;;;3.35;;
50781;SDS011;36749;37.428;-121.972;2023-10-08T00:35:57;5.20;;;2.15;;
50781;SDS011;36749;37.428;-121.972;2023-10-08T00:38:23;5.07;;;2.00;;
50781;SDS011;36749;37.428;-121.972;2023-10-08T00:40:57;4.75;;;2.00;;
50781;SDS011;36749;37.428;-121.972;2023-10-08T00:46:01;5.47;;;2.10;;
50781;SDS011;36749;37.428;-121.972;2023-10-08T00:48:42;4.55;;;1.80;;
50781;SDS011;36749;37.428;-121.972;2023-10-08T00:51:10;4.32;;;2.00;;
50781;SDS011;36749;37.428;-121.972;2023-10-08T00:53:57;4.55;;;1.92;;
50781;SDS011;36749;37.428;-121.972;2023-10-08T00:56:46;7.93;;;2.03;;
50781;SDS011;36749;37.428;-121.972;2023-10-08T00:59:22;5.03;;;1.83;;
50781;SDS011;36749;37.428;-121.972;2023-10-08T01:01:50;2.85;;;1.70;;
50781;SDS011;36749;37.428;-121.972;2023-10-08T01:04:20;10.82;;;2.78;;
50781;SDS011;36749;37.428;-121.972;2023-10-08T01:06:54;4.40;;;1.73;;
50781;SDS011;36749;37.428;-121.972;2023-10-08T01:09:27;6.20;;;1.60;;
50781;SDS011;36749;37.428;-121.972;2023-10-08T01:12:15;5.20;;;2.08;;
50781;SDS011;36749;37.428;-121.972;2023-10-08T01:15:02;3.38;;;1.52;;
50781;SDS011;36749;37.428;-121.972;2023-10-08T01:17:47;2.67;;;1.73;;
50781;SDS011;36749;37.428;-121.972;2023-10-08T01:20:22;5.78;;;1.67;;
50781;SDS011;36749;37.428;-121.972;2023-10-08T01:25:52;3.53;;;2.05;;
50781;SDS011;36749;37.428;-121.972;2023-10-08T01:28:35;2.83;;;1.77;;
50781;SDS011;36749;37.428;-121.972;2023-10-08T01:31:01;6.07;;;1.60;;
50781;SDS011;36749;37.428;-121.972;2023-10-08T01:33:32;3.92;;;1.67;;
50781;SDS011;36749;37.428;-121.972;2023-10-08T01:36:12;4.63;;;1.50;;
50781;SDS011;36749;37.428;-121.972;2023-10-08T01:38:38;5.40;;;1.85;;
50781;SDS011;36749;37.428;-121.972;2023-10-08T01:41:07;11.13;;;2.70;;
50781;SDS011;36749;37.428;-121.972;2023-10-08T01:44:06;6.65;;;2.05;;
50781;SDS011;36749;37.428;-121.972;2023-10-08T01:46:33;5.28;;;2.13;;
50781;SDS011;36749;37.428;-121.972;2023-10-08T01:49:00;5.90;;;1.77;;
50781;SDS011;36749;37.428;-121.972;2023-10-08T01:51:33;6.22;;;1.50;;
50781;SDS011;36749;37.428;-121.972;2023-10-08T01:54:04;5.22;;;1.75;;
50781;SDS011;36749;37.428;-121.972;2023-10-08T01:56:40;4.55;;;1.83;;
50781;SDS011;36749;37.428;-121.972;2023-10-08T01:59:08;7.32;;;1.98;;
50781;SDS011;36749;37.428;-121.972;2023-10-08T02:01:35;3.85;;;1.80;;
50781;SDS011;36749;37.428;-121.972;2023-10-08T02:04:02;3.33;;;1.52;;
50781;SDS011;36749;37.428;-121.972;2023-10-08T02:06:28;6.85;;;2.00;;
50781;SDS011;36749;37.428;-121.972;2023-10-08T02:08:56;3.33;;;2.03;;
50781;SDS011;36749;37.428;-121.972;2023-10-08T02:11:24;8.02;;;2.00;;
50781;SDS011;36749;37.428;-121.972;2023-10-08T02:13:52;5.32;;;1.95;;
50781;SDS011;36749;37.428;-121.972;2023-10-08T02:16:20;5.88;;;2.00;;
50781;SDS011;36749;37.428;-121.972;2023-10-08T02:18:47;4.00;;;1.48;;
50781;SDS011;36749;37.428;-121.972;2023-10-08T02:21:15;4.38;;;1.70;;
50781;SDS011;36749;37.428;-121.972;2023-10-08T02:23:42;3.22;;;1.70;;
50781;SDS011;36749;37.428;-121.972;2023-10-08T02:26:09;5.93;;;2.40;;
50781;SDS011;36749;37.428;-121.972;2023-10-08T02:28:36;3.42;;;2.10;;
50781;SDS011;36749;37.428;-121.972;2023-10-08T02:31:04;6.05;;;2.00;;
50781;SDS011;36749;37.428;-121.972;2023-10-08T02:33:30;3.55;;;2.03;;
50781;SDS011;36749;37.428;-121.972;2023-10-08T02:35:57;6.95;;;1.88;;
50781;SDS011;36749;37.428;-121.972;2023-10-08T02:38:26;5.15;;;1.42;;
50781;SDS011;36749;37.428;-121.972;2023-10-08T02:40:53;5.65;;;2.17;;
50781;SDS011;36749;37.428;-121.972;2023-10-08T02:43:22;3.85;;;2.08;;
50781;SDS011;36749;37.428;-121.972;2023-10-08T02:45:48;5.00;;;2.10;;
50781;SDS011;36749;37.428;-121.972;2023-10-08T02:48:15;5.13;;;1.98;;
50781;SDS011;36749;37.428;-121.972;2023-10-08T02:50:44;8.30;;;2.40;;
50781;SDS011;36749;37.428;-121.972;2023-10-08T02:53:11;6.82;;;2.35;;
50781;SDS011;36749;37.428;-121.972;2023-10-08T02:55:46;7.35;;;2.33;;
50781;SDS011;36749;37.428;-121.972;2023-10-08T02:58:15;9.20;;;2.28;;
50781;SDS011;36749;37.428;-121.972;2023-10-08T03:00:47;5.28;;;2.05;;
50781;SDS011;36749;37.428;-121.972;2023-10-08T03:03:14;6.70;;;2.45;;
50781;SDS011;36749;37.428;-121.972;2023-10-08T03:05:43;5.95;;;2.00;;
50781;SDS011;36749;37.428;-121.972;2023-10-08T03:08:17;5.18;;;2.20;;
50781;SDS011;36749;37.428;-121.972;2023-10-08T03:10:47;7.60;;;2.33;;
50781;SDS011;36749;37.428;-121.972;2023-10-08T03:13:16;4.60;;;2.25;;
50781;SDS011;36749;37.428;-121.972;2023-10-08T03:15:43;4.18;;;2.40;;
50781;SDS011;36749;37.428;-121.972;2023-10-08T03:18:32;6.32;;;2.60;;
50781;SDS011;36749;37.428;-121.972;2023-10-08T03:21:07;4.47;;;2.40;;
50781;SDS011;36749;37.428;-121.972;2023-10-08T03:23:59;6.13;;;2.10;;
50781;SDS011;36749;37.428;-121.972;2023-10-08T03:26:32;7.97;;;2.45;;
50781;SDS011;36749;37.428;-121.972;2023-10-08T03:29:03;5.13;;;2.22;;
50781;SDS011;36749;37.428;-121.972;2023-10-08T03:31:43;5.32;;;2.33;;
50781;SDS011;36749;37.428;-121.972;2023-10-08T03:34:13;10.85;;;2.75;;
50781;SDS011;36749;37.428;-121.972;2023-10-08T03:36:43;6.53;;;2.70;;
50781;SDS011;36749;37.428;-121.972;2023-10-08T03:39:11;4.07;;;2.58;;
50781;SDS011;36749;37.428;-121.972;2023-10-08T03:41:41;5.95;;;2.45;;
50781;SDS011;36749;37.428;-121.972;2023-10-08T03:44:08;6.32;;;2.53;;
50781;SDS011;36749;37.428;-121.972;2023-10-08T03:46:45;5.10;;;2.40;;
50781;SDS011;36749;37.428;-121.972;2023-10-08T03:49:13;5.80;;;2.80;;
50781;SDS011;36749;37.428;-121.972;2023-10-08T03:51:42;7.70;;;2.40;;
50781;SDS011;36749;37.428;-121.972;2023-10-08T03:54:09;7.03;;;2.55;;
50781;SDS011;36749;37.428;-121.972;2023-10-08T03:56:35;5.03;;;2.22;;
50781;SDS011;36749;37.428;-121.972;2023-10-08T03:59:06;6.32;;;2.28;;
50781;SDS011;36749;37.428;-121.972;2023-10-08T04:01:44;8.60;;;2.25;;
50781;SDS011;36749;37.428;-121.972;2023-10-08T04:04:10;5.07;;;1.90;;
50781;SDS011;36749;37.428;-121.972;2023-10-08T04:06:40;8.95;;;2.22;;
50781;SDS011;36749;37.428;-121.972;2023-10-08T04:09:17;4.70;;;2.00;;
50781;SDS011;36749;37.428;-121.972;2023-10-08T04:11:46;5.60;;;2.40;;
50781;SDS011;36749;37.428;-121.972;2023-10-08T04:14:24;5.50;;;2.13;;
50781;SDS011;36749;37.428;-121.972;2023-10-08T04:16:51;5.40;;;2.40;;
50781;SDS011;36749;37.428;-121.972;2023-10-08T04:19:21;5.57;;;2.47;;
50781;SDS011;36749;37.428;-121.972;2023-10-08T04:21:57;5.78;;;2.38;;
50781;SDS011;36749;37.428;-121.972;2023-10-08T04:24:26;8.48;;;2.70;;
50781;SDS011;36749;37.428;-121.972;2023-10-08T04:27:02;7.13;;;2.67;;
50781;SDS011;36749;37.428;-121.972;2023-10-08T04:29:31;6.90;;;2.50;;
50781;SDS011;36749;37.428;-121.972;2023-10-08T04:31:58;7.15;;;2.42;;
50781;SDS011;36749;37.428;-121.972;2023-10-08T04:34:47;5.30;;;2.10;;
50781;SDS011;36749;37.428;-121.972;2023-10-08T04:37:15;6.57;;;2.15;;
50781;SDS011;36749;37.428;-121.972;2023-10-08T04:39:45;7.65;;;2.35;;
50781;SDS011;36749;37.428;-121.972;2023-10-08T04:42:24;6.15;;;2.78;;
50781;SDS011;36749;37.428;-121.972;2023-10-08T04:44:53;5.72;;;2.20;;
50781;SDS011;36749;37.428;-121.972;2023-10-08T04:47:19;7.93;;;2.85;;
50781;SDS011;36749;37.428;-121.972;2023-10-08T04:49:58;7.28;;;2.67;;
50781;SDS011;36749;37.428;-121.972;2023-10-08T04:52:24;8.00;;;2.63;;
50781;SDS011;36749;37.428;-121.972;2023-10-08T04:54:53;7.80;;;2.42;;
50781;SDS011;36749;37.428;-121.972;2023-10-08T04:57:20;6.20;;;2.53;;
50781;SDS011;36749;37.428;-121.972;2023-10-08T04:59:51;4.63;;;2.30;;
50781;SDS011;36749;37.428;-121.972;2023-10-08T05:02:19;5.88;;;2.22;;
50781;SDS011;36749;37.428;-121.972;2023-10-08T05:04:48;7.60;;;2.78;;
50781;SDS011;36749;37.428;-121.972;2023-10-08T05:07:18;4.50;;;2.30;;
50781;SDS011;36749;37.428;-121.972;2023-10-08T05:09:47;7.18;;;2.35;;
50781;SDS011;36749;37.428;-121.972;2023-10-08T05:12:28;4.55;;;2.30;;
50781;SDS011;36749;37.428;-121.972;2023-10-08T05:14:58;6.10;;;2.58;;
50781;SDS011;36749;37.428;-121.972;2023-10-08T05:17:40;8.20;;;2.80;;
50781;SDS011;36749;37.428;-121.972;2023-10-08T05:20:19;8.98;;;2.70;;
50781;SDS011;36749;37.428;-121.972;2023-10-08T05:23:15;10.23;;;2.70;;
50781;SDS011;36749;37.428;-121.972;2023-10-08T05:25:54;8.82;;;2.75;;
50781;SDS011;36749;37.428;-121.972;2023-10-08T05:28:30;5.85;;;2.58;;
50781;SDS011;36749;37.428;-121.972;2023-10-08T05:31:22;10.10;;;2.83;;
50781;SDS011;36749;37.428;-121.972;2023-10-08T05:34:17;8.07;;;2.58;;
50781;SDS011;36749;37.428;-121.972;2023-10-08T05:36:58;5.85;;;2.42;;
50781;SDS011;36749;37.428;-121.972;2023-10-08T05:39:30;8.75;;;2.70;;
50781;SDS011;36749;37.428;-121.972;2023-10-08T05:42:08;6.57;;;2.53;;
50781;SDS011;36749;37.428;-121.972;2023-10-08T05:44:45;7.38;;;2.65;;
50781;SDS011;36749;37.428;-121.972;2023-10-08T05:47:31;6.70;;;2.63;;
50781;SDS011;36749;37.428;-121.972;2023-10-08T05:49:58;9.20;;;2.83;;
50781;SDS011;36749;37.428;-121.972;2023-10-08T05:52:46;7.82;;;2.40;;
50781;SDS011;36749;37.428;-121.972;2023-10-08T05:55:18;7.05;;;2.65;;
50781;SDS011;36749;37.428;-121.972;2023-10-08T05:58:05;8.13;;;2.80;;
50781;SDS011;36749;37.428;-121.972;2023-10-08T06:00:44;6.88;;;2.70;;
50781;SDS011;36749;37.428;-121.972;2023-10-08T06:03:15;8.30;;;2.78;;
50781;SDS011;36749;37.428;-121.972;2023-10-08T06:06:04;7.03;;;3.20;;
50781;SDS011;36749;37.428;-121.972;2023-10-08T06:08:37;9.02;;;2.97;;
50781;SDS011;36749;37.428;-121.972;2023-10-08T06:11:15;9.77;;;3.50;;
50781;SDS011;36749;37.428;-121.972;2023-10-08T06:14:02;10.10;;;3.63;;
50781;SDS011;36749;37.428;-121.972;2023-10-08T06:16:48;7.57;;;3.08;;
50781;SDS011;36749;37.428;-121.972;2023-10-08T06:19:27;9.02;;;3.10;;
50781;SDS011;36749;37.428;-121.972;2023-10-08T06:21:53;6.07;;;3.17;;
50781;SDS011;36749;37.428;-121.972;2023-10-08T06:24:19;6.78;;;3.08;;
50781;SDS011;36749;37.428;-121.972;2023-10-08T06:26:46;5.78;;;3.08;;
50781;SDS011;36749;37.428;-121.972;2023-10-08T06:29:15;9.30;;;3.45;;
50781;SDS011;36749;37.428;-121.972;2023-10-08T06:31:47;6.93;;;2.85;;
50781;SDS011;36749;37.428;-121.972;2023-10-08T06:34:17;8.50;;;2.85;;
50781;SDS011;36749;37.428;-121.972;2023-10-08T06:36:48;7.25;;;2.70;;
50781;SDS011;36749;37.428;-121.972;2023-10-08T06:39:19;7.85;;;2.85;;
50781;SDS011;36749;37.428;-121.972;2023-10-08T06:41:58;7.47;;;3.35;;
50781;SDS011;36749;37.428;-121.972;2023-10-08T06:44:25;7.57;;;3.10;;
50781;SDS011;36749;37.428;-121.972;2023-10-08T06:46:53;9.80;;;3.20;;
50781;SDS011;36749;37.428;-121.972;2023-10-08T06:49:21;6.53;;;3.17;;
50781;SDS011;36749;37.428;-121.972;2023-10-08T06:51:51;7.30;;;3.25;;
50781;SDS011;36749;37.428;-121.972;2023-10-08T06:54:19;6.25;;;2.70;;
50781;SDS011;36749;37.428;-121.972;2023-10-08T06:56:45;7.22;;;2.58;;
50781;SDS011;36749;37.428;-121.972;2023-10-08T06:59:12;8.20;;;3.13;;
50781;SDS011;36749;37.428;-121.972;2023-10-08T07:01:39;13.95;;;3.28;;
50781;SDS011;36749;37.428;-121.972;2023-10-08T07:04:06;9.30;;;2.88;;
50781;SDS011;36749;37.428;-121.972;2023-10-08T07:06:41;7.45;;;3.10;;
50781;SDS011;36749;37.428;-121.972;2023-10-08T07:09:17;8.75;;;3.17;;
50781;SDS011;36749;37.428;-121.972;2023-10-08T07:11:52;7.72;;;2.60;;
50781;SDS011;36749;37.428;-121.972;2023-10-08T07:14:23;8.23;;;3.70;;
50781;SDS011;36749;37.428;-121.972;2023-10-08T07:16:53;9.55;;;4.13;;
50781;SDS011;36749;37.428;-121.972;2023-10-08T07:19:29;11.68;;;3.22;;
50781;SDS011;36749;37.428;-121.972;2023-10-08T07:22:03;6.07;;;3.00;;
50781;SDS011;36749;37.428;-121.972;2023-10-08T07:24:43;14.48;;;4.45;;
50781;SDS011;36749;37.428;-121.972;2023-10-08T07:27:16;9.95;;;4.00;;
50781;SDS011;36749;37.428;-121.972;2023-10-08T07:29:47;10.00;;;4.00;;
50781;SDS011;36749;37.428;-121.972;2023-10-08T07:32:14;12.27;;;3.95;;
50781;SDS011;36749;37.428;-121.972;2023-10-08T07:34:44;11.48;;;4.57;;
50781;SDS011;36749;37.428;-121.972;2023-10-08T07:37:10;9.27;;;4.03;;
50781;SDS011;36749;37.428;-121.972;2023-10-08T07:39:37;12.13;;;3.75;;
50781;SDS011;36749;37.428;-121.972;2023-10-08T07:42:11;8.63;;;3.90;;
50781;SDS011;36749;37.428;-121.972;2023-10-08T07:44:38;9.63;;;3.67;;
50781;SDS011;36749;37.428;-121.972;2023-10-08T07:47:05;8.95;;;3.75;;
50781;SDS011;36749;37.428;-121.972;2023-10-08T07:49:39;11.10;;;3.83;;
50781;SDS011;36749;37.428;-121.972;2023-10-08T07:52:09;8.93;;;3.28;;
50781;SDS011;36749;37.428;-121.972;2023-10-08T07:54:40;11.77;;;4.40;;
50781;SDS011;36749;37.428;-121.972;2023-10-08T07:57:06;15.38;;;6.15;;
50781;SDS011;36749;37.428;-121.972;2023-10-08T07:59:38;15.82;;;7.32;;
50781;SDS011;36749;37.428;-121.972;2023-10-08T08:02:07;13.10;;;5.57;;
50781;SDS011;36749;37.428;-121.972;2023-10-08T08:04:41;7.72;;;3.92;;
50781;SDS011;36749;37.428;-121.972;2023-10-08T08:07:16;9.45;;;4.15;;
50781;SDS011;36749;37.428;-121.972;2023-10-08T08:09:42;9.68;;;4.45;;
50781;SDS011;36749;37.428;-121.972;2023-10-08T08:12:18;11.35;;;4.63;;
50781;SDS011;36749;37.428;-121.972;2023-10-08T08:14:47;12.30;;;6.10;;
50781;SDS011;36749;37.428;-121.972;2023-10-08T08:17:14;16.08;;;6.35;;
50781;SDS011;36749;37.428;-121.972;2023-10-08T08:19:41;15.95;;;5.75;;
50781;SDS011;36749;37.428;-121.972;2023-10-08T08:22:10;15.77;;;6.47;;
50781;SDS011;36749;37.428;-121.972;2023-10-08T08:24:56;16.50;;;6.38;;
50781;SDS011;36749;37.428;-121.972;2023-10-08T08:27:31;14.85;;;5.50;;
50781;SDS011;36749;37.428;-121.972;2023-10-08T08:29:58;11.88;;;5.07;;
50781;SDS011;36749;37.428;-121.972;2023-10-08T08:32:38;12.45;;;4.80;;
50781;SDS011;36749;37.428;-121.972;2023-10-08T08:35:06;13.40;;;4.10;;
50781;SDS011;36749;37.428;-121.972;2023-10-08T08:37:33;12.52;;;4.60;;
50781;SDS011;36749;37.428;-121.972;2023-10-08T08:40:07;11.85;;;4.35;;
50781;SDS011;36749;37.428;-121.972;2023-10-08T08:42:46;14.55;;;4.93;;
50781;SDS011;36749;37.428;-121.972;2023-10-08T08:45:20;13.40;;;5.22;;
50781;SDS011;36749;37.428;-121.972;2023-10-08T08:47:50;15.75;;;5.43;;
50781;SDS011;36749;37.428;-121.972;2023-10-08T08:50:21;13.00;;;5.78;;
50781;SDS011;36749;37.428;-121.972;2023-10-08T08:52:47;12.77;;;6.18;;
50781;SDS011;36749;37.428;-121.972;2023-10-08T08:55:13;11.07;;;6.32;;
50781;SDS011;36749;37.428;-121.972;2023-10-08T08:57:41;14.13;;;5.72;;
50781;SDS011;36749;37.428;-121.972;2023-10-08T09:00:10;11.48;;;5.93;;
50781;SDS011;36749;37.428;-121.972;2023-10-08T09:02:39;14.23;;;6.55;;
50781;SDS011;36749;37.428;-121.972;2023-10-08T09:05:05;14.18;;;6.10;;
50781;SDS011;36749;37.428;-121.972;2023-10-08T09:07:57;13.57;;;6.20;;
50781;SDS011;36749;37.428;-121.972;2023-10-08T09:10:28;12.98;;;6.35;;
50781;SDS011;36749;37.428;-121.972;2023-10-08T09:12:55;11.60;;;5.35;;
50781;SDS011;36749;37.428;-121.972;2023-10-08T09:15:25;12.48;;;5.85;;
50781;SDS011;36749;37.428;-121.972;2023-10-08T09:17:52;12.45;;;4.30;;
50781;SDS011;36749;37.428;-121.972;2023-10-08T09:20:20;12.20;;;5.00;;
50781;SDS011;36749;37.428;-121.972;2023-10-08T09:22:50;12.68;;;4.90;;
50781;SDS011;36749;37.428;-121.972;2023-10-08T09:25:37;9.98;;;4.60;;
50781;SDS011;36749;37.428;-121.972;2023-10-08T09:28:05;12.75;;;5.10;;
50781;SDS011;36749;37.428;-121.972;2023-10-08T09:30:36;12.25;;;4.47;;
50781;SDS011;36749;37.428;-121.972;2023-10-08T09:33:05;13.20;;;4.00;;
50781;SDS011;36749;37.428;-121.972;2023-10-08T09:35:32;10.32;;;4.43;;
50781;SDS011;36749;37.428;-121.972;2023-10-08T09:37:59;10.63;;;4.50;;
50781;SDS011;36749;37.428;-121.972;2023-10-08T09:40:28;10.43;;;4.70;;
50781;SDS011;36749;37.428;-121.972;2023-10-08T09:42:54;8.65;;;3.75;;
50781;SDS011;36749;37.428;-121.972;2023-10-08T09:45:21;12.63;;;4.18;;
50781;SDS011;36749;37.428;-121.972;2023-10-08T09:47:49;10.32;;;4.00;;
50781;SDS011;36749;37.428;-121.972;2023-10-08T09:50:20;11.73;;;3.60;;
50781;SDS011;36749;37.428;-121.972;2023-10-08T09:53:00;9.35;;;3.83;;
50781;SDS011;36749;37.428;-121.972;2023-10-08T09:55:54;12.07;;;4.07;;
50781;SDS011;36749;37.428;-121.972;2023-10-08T09:58:21;9.70;;;3.35;;
50781;SDS011;36749;37.428;-121.972;2023-10-08T10:00:49;8.50;;;3.53;;
50781;SDS011;36749;37.428;-121.972;2023-10-08T10:03:17;8.43;;;3.50;;
50781;SDS011;36749;37.428;-121.972;2023-10-08T10:05:45;8.80;;;3.97;;
50781;SDS011;36749;37.428;-121.972;2023-10-08T10:08:11;6.93;;;3.35;;
50781;SDS011;36749;37.428;-121.972;2023-10-08T10:10:40;9.10;;;3.63;;
50781;SDS011;36749;37.428;-121.972;2023-10-08T10:13:10;8.10;;;3.85;;
50781;SDS011;36749;37.428;-121.972;2023-10-08T10:15:37;13.88;;;4.88;;
50781;SDS011;36749;37.428;-121.972;2023-10-08T10:18:12;11.98;;;4.30;;
50781;SDS011;36749;37.428;-121.972;2023-10-08T10:20:40;10.35;;;3.95;;
50781;SDS011;36749;37.428;-121.972;2023-10-08T10:24:12;12.55;;;4.82;;
50781;SDS011;36749;37.428;-121.972;2023-10-08T10:31:49;15.15;;;4.13;;
50781;SDS011;36749;37.428;-121.972;2023-10-08T10:34:22;11.45;;;4.00;;
50781;SDS011;36749;37.428;-121.972;2023-10-08T10:39:24;11.18;;;3.55;;
50781;SDS011;36749;37.428;-121.972;2023-10-08T10:42:00;10.85;;;3.85;;
50781;SDS011;36749;37.428;-121.972;2023-10-08T10:44:27;15.18;;;4.05;;
50781;SDS011;36749;37.428;-121.972;2023-10-08T10:46:55;9.52;;;3.72;;
50781;SDS011;36749;37.428;-121.972;2023-10-08T10:49:43;8.55;;;3.42;;
50781;SDS011;36749;37.428;-121.972;2023-10-08T10:52:28;9.95;;;3.53;;
50781;SDS011;36749;37.428;-121.972;2023-10-08T10:55:04;11.65;;;3.67;;
50781;SDS011;36749;37.428;-121.972;2023-10-08T10:57:41;10.80;;;4.03;;
50781;SDS011;36749;37.428;-121.972;2023-10-08T11:00:08;11.65;;;3.65;;
50781;SDS011;36749;37.428;-121.972;2023-10-08T11:02:53;11.93;;;4.35;;
50781;SDS011;36749;37.428;-121.972;2023-10-08T11:05:26;12.88;;;3.95;;
50781;SDS011;36749;37.428;-121.972;2023-10-08T11:07:56;14.85;;;5.25;;
50781;SDS011;36749;37.428;-121.972;2023-10-08T11:10:32;13.55;;;4.95;;
50781;SDS011;36749;37.428;-121.972;2023-10-08T11:13:00;12.00;;;4.80;;
50781;SDS011;36749;37.428;-121.972;2023-10-08T11:15:27;15.65;;;5.13;;
50781;SDS011;36749;37.428;-121.972;2023-10-08T11:18:15;13.57;;;4.80;;
50781;SDS011;36749;37.428;-121.972;2023-10-08T11:20:43;13.15;;;4.60;;
50781;SDS011;36749;37.428;-121.972;2023-10-08T11:23:10;13.02;;;5.47;;
50781;SDS011;36749;37.428;-121.972;2023-10-08T11:25:59;14.70;;;5.38;;
50781;SDS011;36749;37.428;-121.972;2023-10-08T11:28:28;12.18;;;4.90;;
50781;SDS011;36749;37.428;-121.972;2023-10-08T11:30:55;17.45;;;6.47;;
50781;SDS011;36749;37.428;-121.972;2023-10-08T11:33:24;14.18;;;5.70;;
50781;SDS011;36749;37.428;-121.972;2023-10-08T11:36:00;14.25;;;5.60;;
50781;SDS011;36749;37.428;-121.972;2023-10-08T11:38:37;13.25;;;5.40;;
50781;SDS011;36749;37.428;-121.972;2023-10-08T11:41:11;19.27;;;5.88;;
50781;SDS011;36749;37.428;-121.972;2023-10-08T11:43:47;13.32;;;5.47;;
50781;SDS011;36749;37.428;-121.972;2023-10-08T11:46:20;16.58;;;6.70;;
50781;SDS011;36749;37.428;-121.972;2023-10-08T11:48:47;11.13;;;5.15;;
50781;SDS011;36749;37.428;-121.972;2023-10-08T11:51:13;13.45;;;4.80;;
50781;SDS011;36749;37.428;-121.972;2023-10-08T11:53:43;13.18;;;5.78;;
50781;SDS011;36749;37.428;-121.972;2023-10-08T11:56:12;13.65;;;4.57;;
50781;SDS011;36749;37.428;-121.972;2023-10-08T11:58:39;7.35;;;3.70;;
50781;SDS011;36749;37.428;-121.972;2023-10-08T12:01:10;8.10;;;3.58;;
50781;SDS011;36749;37.428;-121.972;2023-10-08T12:03:44;10.10;;;3.50;;
50781;SDS011;36749;37.428;-121.972;2023-10-08T12:06:11;9.60;;;3.33;;
50781;SDS011;36749;37.428;-121.972;2023-10-08T12:08:41;10.52;;;3.80;;
50781;SDS011;36749;37.428;-121.972;2023-10-08T12:11:10;8.65;;;3.95;;
50781;SDS011;36749;37.428;-121.972;2023-10-08T12:13:38;9.73;;;3.35;;
50781;SDS011;36749;37.428;-121.972;2023-10-08T12:16:10;9.43;;;2.97;;
50781;SDS011;36749;37.428;-121.972;2023-10-08T12:18:44;7.95;;;3.15;;
50781;SDS011;36749;37.428;-121.972;2023-10-08T12:21:14;8.93;;;3.28;;
50781;SDS011;36749;37.428;-121.972;2023-10-08T12:23:41;12.00;;;3.53;;
50781;SDS011;36749;37.428;-121.972;2023-10-08T12:26:12;9.75;;;3.83;;
50781;SDS011;36749;37.428;-121.972;2023-10-08T12:28:43;8.40;;;3.65;;
50781;SDS011;36749;37.428;-121.972;2023-10-08T12:31:11;12.98;;;3.95;;
50781;SDS011;36749;37.428;-121.972;2023-10-08T12:33:41;10.95;;;3.63;;
50781;SDS011;36749;37.428;-121.972;2023-10-08T12:36:09;12.38;;;3.92;;
50781;SDS011;36749;37.428;-121.972;2023-10-08T12:38:36;9.10;;;3.42;;
50781;SDS011;36749;37.428;-121.972;2023-10-08T12:41:03;11.15;;;4.18;;
50781;SDS011;36749;37.428;-121.972;2023-10-08T12:43:39;9.50;;;3.58;;
50781;SDS011;36749;37.428;-121.972;2023-10-08T12:46:12;7.70;;;3.95;;
50781;SDS011;36749;37.428;-121.972;2023-10-08T12:48:49;8.32;;;3.85;;
50781;SDS011;36749;37.428;-121.972;2023-10-08T12:51:24;10.73;;;3.70;;
50781;SDS011;36749;37.428;-121.972;2023-10-08T12:53:53;9.75;;;3.90;;
50781;SDS011;36749;37.428;-121.972;2023-10-08T12:56:32;9.70;;;3.70;;
50781;SDS011;36749;37.428;-121.972;2023-10-08T12:59:10;9.57;;;3.63;;
50781;SDS011;36749;37.428;-121.972;2023-10-08T13:01:46;11.05;;;3.42;;
50781;SDS011;36749;37.428;-121.972;2023-10-08T13:04:19;11.60;;;3.65;;
50781;SDS011;36749;37.428;-121.972;2023-10-08T13:06:55;11.27;;;3.92;;
50781;SDS011;36749;37.428;-121.972;2023-10-08T13:09:26;8.37;;;3.87;;
50781;SDS011;36749;37.428;-121.972;2023-10-08T13:11:52;8.95;;;3.30;;
50781;SDS011;36749;37.428;-121.972;2023-10-08T13:14:19;6.95;;;3.38;;
50781;SDS011;36749;37.428;-121.972;2023-10-08T13:16:47;9.48;;;3.55;;
50781;SDS011;36749;37.428;-121.972;2023-10-08T13:19:14;8.52;;;3.35;;
50781;SDS011;36749;37.428;-121.972;2023-10-08T13:21:41;6.85;;;3.50;;
50781;SDS011;36749;37.428;-121.972;2023-10-08T13:24:09;8.57;;;3.50;;
50781;SDS011;36749;37.428;-121.972;2023-10-08T13:26:36;9.02;;;4.10;;
50781;SDS011;36749;37.428;-121.972;2023-10-08T13:29:03;14.30;;;3.97;;
50781;SDS011;36749;37.428;-121.972;2023-10-08T13:31:34;7.90;;;3.60;;
50781;SDS011;36749;37.428;-121.972;2023-10-08T13:34:03;10.77;;;3.78;;
50781;SDS011;36749;37.428;-121.972;2023-10-08T13:36:34;13.60;;;4.22;;
50781;SDS011;36749;37.428;-121.972;2023-10-08T13:39:04;12.85;;;4.63;;
50781;SDS011;36749;37.428;-121.972;2023-10-08T13:41:35;8.75;;;3.83;;
50781;SDS011;36749;37.428;-121.972;2023-10-08T13:44:03;9.50;;;4.35;;
50781;SDS011;36749;37.428;-121.972;2023-10-08T13:46:30;8.52;;;4.22;;
50781;SDS011;36749;37.428;-121.972;2023-10-08T13:49:01;9.45;;;3.70;;
50781;SDS011;36749;37.428;-121.972;2023-10-08T13:51:28;7.03;;;3.55;;
50781;SDS011;36749;37.428;-121.972;2023-10-08T13:53:54;10.75;;;3.78;;
50781;SDS011;36749;37.428;-121.972;2023-10-08T13:56:32;11.02;;;4.00;;
50781;SDS011;36749;37.428;-121.972;2023-10-08T13:59:01;10.02;;;3.75;;
50781;SDS011;36749;37.428;-121.972;2023-10-08T14:01:40;7.68;;;3.53;;
50781;SDS011;36749;37.428;-121.972;2023-10-08T14:04:16;6.95;;;3.40;;
50781;SDS011;36749;37.428;-121.972;2023-10-08T14:06:45;10.43;;;3.78;;
50781;SDS011;36749;37.428;-121.972;2023-10-08T14:09:19;9.43;;;3.90;;
50781;SDS011;36749;37.428;-121.972;2023-10-08T14:11:47;7.65;;;3.72;;
50781;SDS011;36749;37.428;-121.972;2023-10-08T14:14:18;8.05;;;3.67;;
50781;SDS011;36749;37.428;-121.972;2023-10-08T14:16:45;9.65;;;4.10;;
50781;SDS011;36749;37.428;-121.972;2023-10-08T14:19:17;7.13;;;3.85;;
50781;SDS011;36749;37.428;-121.972;2023-10-08T14:21:48;9.43;;;3.70;;
50781;SDS011;36749;37.428;-121.972;2023-10-08T14:24:28;8.30;;;3.80;;
50781;SDS011;36749;37.428;-121.972;2023-10-08T14:26:58;9.93;;;4.10;;
50781;SDS011;36749;37.428;-121.972;2023-10-08T14:29:28;11.65;;;4.03;;
50781;SDS011;36749;37.428;-121.972;2023-10-08T14:31:55;8.38;;;3.63;;
50781;SDS011;36749;37.428;-121.972;2023-10-08T14:34:22;10.55;;;3.90;;
50781;SDS011;36749;37.428;-121.972;2023-10-08T14:37:14;7.28;;;3.65;;
50781;SDS011;36749;37.428;-121.972;2023-10-08T14:39:59;9.75;;;4.07;;
50781;SDS011;36749;37.428;-121.972;2023-10-08T14:42:43;7.75;;;3.72;;
50781;SDS011;36749;37.428;-121.972;2023-10-08T14:45:25;10.23;;;3.70;;